Time;durP1;ratioP1;P1;durP2;ratioP2;P2;SDS_P1;SDS_P2;PMS_P1;PMS_P2;Temp;Humidity;BMP_temperature;BMP_pressure;BME280_temperature;BME280_humidity;BME280_pressure;Samples;Min_cycle;Max_cycle;Signal;HPM_P1;HPM_P2
2022/09/18 00:00:09;;;;;;;9.65;6.58;;;;;;;13.14;98.04;98045.52;1749329;81;21074;-76
2022/09/18 00:02:37;;;;;;;11.53;6.03;;;;;;;13.13;98.12;98044.30;1749558;82;21600;-76
2022/09/18 00:05:04;;;;;;;7.45;5.50;;;;;;;13.10;98.11;98037.45;1749191;81;22301;-76
2022/09/18 00:07:31;;;;;;;6.22;4.67;;;;;;;13.09;98.29;98044.16;1749324;82;21534;-76
2022/09/18 00:09:57;;;;;;;7.42;4.87;;;;;;;13.08;98.43;98054.33;1749292;81;21494;-77
2022/09/18 00:12:24;;;;;;;4.25;3.77;;;;;;;13.09;98.44;98058.68;1749350;82;21046;-76
2022/09/18 00:14:51;;;;;;;4.50;4.10;;;;;;;13.08;98.44;98053.02;1749187;82;22145;-76
2022/09/18 00:17:17;;;;;;;7.58;3.70;;;;;;;13.06;98.46;98046.52;1748994;82;21075;-76
2022/09/18 00:19:44;;;;;;;4.00;3.70;;;;;;;13.06;98.50;98042.55;1749503;82;21012;-76
2022/09/18 00:22:10;;;;;;;3.70;3.22;;;;;;;13.04;98.50;98031.74;1748979;81;21122;-77
2022/09/18 00:24:37;;;;;;;3.67;3.47;;;;;;;13.03;98.57;98027.41;1749248;82;21118;-76
2022/09/18 00:27:04;;;;;;;4.35;4.03;;;;;;;13.03;98.53;98030.05;1749353;82;21154;-76
2022/09/18 00:29:31;;;;;;;4.28;3.98;;;;;;;13.03;98.51;98027.41;1752089;81;21132;-76
2022/09/18 00:31:58;;;;;;;4.12;3.70;;;;;;;12.98;98.51;98015.38;1752238;81;21062;-76
2022/09/18 00:34:25;;;;;;;3.80;3.50;;;;;;;12.97;98.69;98012.84;1752253;81;21008;-77
2022/09/18 00:36:51;;;;;;;3.98;3.67;;;;;;;12.95;98.77;98011.63;1752615;81;21098;-76
2022/09/18 00:39:17;;;;;;;4.25;3.75;;;;;;;12.93;98.89;97999.01;1752560;81;21146;-76
2022/09/18 00:41:44;;;;;;;3.80;3.60;;;;;;;12.91;98.99;97994.31;1752754;81;21106;-76
2022/09/18 00:44:38;;;;;;;3.75;3.45;;;;;;;12.93;99.01;97996.37;1752342;81;21059;-77
2022/09/18 00:47:31;;;;;;;5.22;3.75;;;;;;;12.93;99.16;97999.01;1752559;81;21030;-76
2022/09/18 00:50:07;;;;;;;4.08;3.83;;;;;;;12.91;99.28;97995.64;1751594;81;21168;-76
2022/09/18 00:52:55;;;;;;;7.47;3.60;;;;;;;12.90;99.26;97986.02;1752836;81;21081;-76
2022/09/18 00:55:27;;;;;;;4.37;3.98;;;;;;;12.92;99.27;97977.51;1752349;81;21198;-76
2022/09/18 00:57:55;;;;;;;4.33;3.92;;;;;;;12.92;99.37;97970.91;1752525;81;21039;-77
2022/09/18 01:00:22;;;;;;;4.80;4.40;;;;;;;12.93;99.45;97968.65;1752296;81;21015;-76
2022/09/18 01:02:50;;;;;;;6.30;4.60;;;;;;;12.92;99.47;97973.55;1752630;81;21074;-77
2022/09/18 01:05:44;;;;;;;5.75;4.87;;;;;;;12.93;99.45;97983.17;1752399;81;21129;-76
2022/09/18 01:08:31;;;;;;;8.38;5.42;;;;;;;12.92;99.55;97984.11;1752493;81;21893;-76
2022/09/18 01:11:23;;;;;;;8.90;5.75;;;;;;;12.90;99.60;97975.45;1752028;81;21070;-76
2022/09/18 01:14:04;;;;;;;11.93;7.17;;;;;;;12.89;99.72;97966.31;1742379;81;21035;-76
2022/09/18 01:16:57;;;;;;;11.83;7.83;;;;;;;12.89;99.63;97962.36;1752082;81;21066;-76
2022/09/18 01:20:05;;;;;;;18.55;8.45;;;;;;;12.87;99.76;97962.46;1697314;81;20999;-76
2022/09/18 01:22:59;;;;;;;12.90;8.53;;;;;;;12.85;99.88;97956.45;1752269;81;21255;-76
2022/09/18 01:25:37;;;;;;;12.10;8.03;;;;;;;12.87;100.00;97957.19;1752240;81;21039;-76
2022/09/18 01:28:15;;;;;;;11.57;9.20;;;;;;;12.86;100.00;97947.59;1752092;81;21040;-76
2022/09/18 01:30:44;;;;;;;13.53;9.93;;;;;;;12.83;100.00;97933.28;1750875;81;21557;-76
2022/09/18 01:33:16;;;;;;;18.65;9.75;;;;;;;12.79;100.00;97930.47;1751338;81;21023;-76
2022/09/18 01:35:48;;;;;;;17.75;8.90;;;;;;;12.80;100.00;97926.89;1741764;81;21579;-76
2022/09/18 01:38:30;;;;;;;15.48;10.10;;;;;;;12.82;100.00;97922.34;1751209;81;21003;-76
2022/09/18 01:41:22;;;;;;;20.17;11.78;;;;;;;12.81;100.00;97918.03;1750773;81;21134;-76
2022/09/18 01:44:00;;;;;;;21.57;11.95;;;;;;;12.79;100.00;97907.59;1750991;81;21103;-75
2022/09/18 01:46:27;;;;;;;19.32;11.53;;;;;;;12.79;100.00;97904.08;1751136;81;21043;-76
2022/09/18 01:48:58;;;;;;;17.37;11.10;;;;;;;12.81;100.00;97904.84;1751359;81;21086;-76
2022/09/18 01:51:30;;;;;;;11.57;9.70;;;;;;;12.82;100.00;97912.63;1726064;81;21486;-75
2022/09/18 01:54:04;;;;;;;11.68;7.75;;;;;;;12.83;100.00;97901.12;1751173;81;21957;-76
2022/09/18 01:56:35;;;;;;;5.87;5.28;;;;;;;12.85;100.00;97893.11;1751137;81;21584;-76
2022/09/18 01:59:06;;;;;;;7.65;5.28;;;;;;;12.88;100.00;97889.39;1750554;81;21011;-76
2022/09/18 02:01:41;;;;;;;5.62;5.12;;;;;;;12.88;99.94;97882.80;1750093;81;21111;-76
2022/09/18 02:04:12;;;;;;;4.87;4.37;;;;;;;12.87;99.89;97872.72;1750976;81;21050;-76
2022/09/18 02:06:42;;;;;;;4.03;3.72;;;;;;;12.88;99.89;97867.81;1725945;81;21157;-76
2022/09/18 02:09:09;;;;;;;4.03;3.72;;;;;;;12.88;99.85;97876.19;1750735;81;21098;-76
2022/09/18 02:11:39;;;;;;;5.00;3.80;;;;;;;12.87;99.83;97870.08;1751282;81;21055;-76
2022/09/18 02:14:13;;;;;;;7.03;3.50;;;;;;;12.85;99.88;97871.98;1750911;81;21238;-76
2022/09/18 02:16:52;;;;;;;4.00;3.70;;;;;;;12.83;99.91;97867.30;1749394;81;21051;-76
2022/09/18 02:19:29;;;;;;;5.72;3.50;;;;;;;12.86;99.87;97872.38;1751044;81;21047;-75
2022/09/18 02:21:56;;;;;;;4.10;3.60;;;;;;;12.87;99.81;97870.08;1751330;81;21086;-76
2022/09/18 02:24:27;;;;;;;4.00;3.65;;;;;;;12.87;99.69;97866.13;1725975;81;21063;-77
2022/09/18 02:26:53;;;;;;;4.45;3.72;;;;;;;12.88;99.64;97862.54;1726895;81;21083;-77
2022/09/18 02:29:20;;;;;;;4.30;3.95;;;;;;;12.89;99.55;97858.09;1750881;81;21063;-76
2022/09/18 02:31:48;;;;;;;3.87;3.65;;;;;;;12.88;99.53;97855.94;1750741;81;21047;-77
2022/09/18 02:34:16;;;;;;;5.58;4.30;;;;;;;12.88;99.53;97853.30;1751115;81;21008;-76
2022/09/18 02:37:11;;;;;;;6.33;4.30;;;;;;;12.88;99.48;97845.38;1750892;81;21074;-77
2022/09/18 02:40:09;;;;;;;4.37;4.03;;;;;;;12.89;99.44;97843.09;1751142;81;21943;-76
2022/09/18 02:42:58;;;;;;;6.10;4.53;;;;;;;12.90;99.40;97832.08;1751001;81;21098;-77
2022/09/18 02:45:37;;;;;;;4.62;4.30;;;;;;;12.89;99.41;97809.27;1729285;81;21000;-77
2022/09/18 02:48:36;;;;;;;4.92;4.53;;;;;;;12.86;99.45;97794.51;1750863;81;21507;-75
2022/09/18 02:51:30;;;;;;;4.60;4.20;;;;;;;12.83;99.45;97785.00;1751074;81;20987;-77
2022/09/18 02:54:11;;;;;;;8.43;5.20;;;;;;;12.80;99.59;97787.02;1747724;81;21144;-75
2022/09/18 02:56:57;;;;;;;5.10;4.50;;;;;;;12.77;99.75;97789.87;1751099;81;21562;-77
2022/09/18 02:59:29;;;;;;;6.72;4.47;;;;;;;12.73;99.95;97776.54;1751013;81;21114;-76
2022/09/18 03:01:56;;;;;;;6.97;4.87;;;;;;;12.73;100.00;97772.58;1751102;81;21098;-76
2022/09/18 03:04:26;;;;;;;5.50;4.87;;;;;;;12.71;100.00;97765.23;1751035;81;21003;-77
2022/09/18 03:06:54;;;;;;;13.28;5.30;;;;;;;12.70;100.00;97759.60;1743308;81;21120;-76
2022/09/18 03:09:21;;;;;;;6.17;5.30;;;;;;;12.70;100.00;97759.60;1751079;81;20972;-77
2022/09/18 03:11:49;;;;;;;6.37;4.92;;;;;;;12.68;100.00;97747.83;1751129;81;21141;-77
2022/09/18 03:14:17;;;;;;;5.67;5.10;;;;;;;12.68;100.00;97750.95;1750842;81;21082;-76
2022/09/18 03:16:45;;;;;;;7.90;4.45;;;;;;;12.64;100.00;97747.67;1750771;81;21062;-77
2022/09/18 03:19:13;;;;;;;7.83;3.95;;;;;;;12.62;100.00;97741.21;1751053;81;21628;-76
2022/09/18 03:21:41;;;;;;;4.17;3.65;;;;;;;12.62;100.00;97741.21;1750679;81;20988;-76
2022/09/18 03:24:11;;;;;;;4.78;4.33;;;;;;;12.61;100.00;97727.64;1751035;81;21029;-77
2022/09/18 03:26:40;;;;;;;9.30;4.67;;;;;;;12.58;100.00;97729.17;1751216;81;21035;-77
2022/09/18 03:29:08;;;;;;;4.75;4.10;;;;;;;12.55;100.00;97726.75;1751105;81;21031;-77
2022/09/18 03:31:35;;;;;;;6.17;3.92;;;;;;;12.55;100.00;97720.16;1750930;81;21251;-77
2022/09/18 03:34:04;;;;;;;4.60;4.20;;;;;;;12.53;100.00;97720.75;1750743;81;21042;-77
2022/09/18 03:36:31;;;;;;;4.53;4.15;;;;;;;12.49;100.00;97714.02;1751204;81;21051;-77
2022/09/18 03:38:57;;;;;;;4.12;3.80;;;;;;;12.48;100.00;97711.00;1750867;81;21054;-76
2022/09/18 03:41:24;;;;;;;4.37;4.08;;;;;;;12.45;100.00;97699.34;1750952;81;21062;-77
2022/09/18 03:43:51;;;;;;;3.87;3.58;;;;;;;12.44;100.00;97702.95;1750753;81;21190;-77
2022/09/18 03:46:22;;;;;;;4.15;3.95;;;;;;;12.45;100.00;97696.70;1750868;81;21059;-77
2022/09/18 03:48:50;;;;;;;4.58;4.17;;;;;;;12.45;100.00;97701.50;1750700;81;20996;-76
2022/09/18 03:51:18;;;;;;;4.03;3.72;;;;;;;12.43;100.00;97688.91;1750927;81;21073;-77
2022/09/18 03:53:45;;;;;;;4.58;3.83;;;;;;;12.45;100.00;97686.98;1751150;81;21380;-77
2022/09/18 03:56:20;;;;;;;4.00;3.70;;;;;;;12.46;100.00;97674.67;1720704;81;22301;-76
2022/09/18 03:59:01;;;;;;;5.22;4.20;;;;;;;12.46;100.00;97686.53;1710684;81;21027;-76
2022/09/18 04:01:32;;;;;;;3.77;3.52;;;;;;;12.45;100.00;97682.20;1744431;81;21020;-76
2022/09/18 04:04:01;;;;;;;4.00;3.67;;;;;;;12.45;100.00;97686.16;1733160;81;21498;-76
2022/09/18 04:06:29;;;;;;;5.17;3.70;;;;;;;12.46;100.00;97675.98;1746149;81;21059;-77
2022/09/18 04:09:01;;;;;;;4.12;3.83;;;;;;;12.45;100.00;97679.56;1750125;81;21478;-77
2022/09/18 04:11:31;;;;;;;3.98;3.58;;;;;;;12.42;100.00;97679.77;1750230;81;21031;-76
2022/09/18 04:13:58;;;;;;;3.92;3.67;;;;;;;12.39;100.00;97660.21;1751049;81;21055;-77
2022/09/18 04:16:24;;;;;;;5.97;3.98;;;;;;;12.37;100.00;97656.84;1750907;81;22338;-77
2022/09/18 04:18:51;;;;;;;5.12;3.65;;;;;;;12.37;100.00;97651.58;1750987;81;21009;-76
2022/09/18 04:21:17;;;;;;;3.85;3.55;;;;;;;12.36;100.00;97643.31;1751348;81;21099;-77
2022/09/18 04:23:45;;;;;;;3.60;3.25;;;;;;;12.33;100.00;97634.30;1750966;81;21579;-77
2022/09/18 04:26:12;;;;;;;3.77;3.47;;;;;;;12.31;100.00;97633.09;1751118;81;21097;-77
2022/09/18 04:28:41;;;;;;;3.30;3.10;;;;;;;12.29;100.00;97623.59;1750210;81;21113;-77
2022/09/18 04:31:07;;;;;;;4.87;3.10;;;;;;;12.28;100.00;97617.48;1767274;81;21098;-76
2022/09/18 04:33:34;;;;;;;3.05;2.75;;;;;;;12.25;100.00;97606.70;1767504;81;21211;-77
2022/09/18 04:36:02;;;;;;;2.58;2.47;;;;;;;12.26;100.00;97604.41;1767032;80;21089;-77
2022/09/18 04:38:29;;;;;;;4.10;3.30;;;;;;;12.29;100.00;97602.04;1767682;81;21113;-78
2022/09/18 04:40:56;;;;;;;2.87;2.77;;;;;;;12.30;100.00;97589.69;1767900;81;21133;-77
2022/09/18 04:43:23;;;;;;;2.80;2.37;;;;;;;12.29;100.00;97586.22;1767358;81;21061;-77
2022/09/18 04:45:50;;;;;;;2.83;2.62;;;;;;;12.30;100.00;97573.86;1767566;81;21201;-77
2022/09/18 04:48:17;;;;;;;2.72;2.52;;;;;;;12.29;100.00;97589.31;1767593;81;21105;-77
2022/09/18 04:50:46;;;;;;;2.75;2.60;;;;;;;12.25;100.00;97579.02;1737580;81;21995;-76
2022/09/18 04:53:14;;;;;;;4.25;2.90;;;;;;;12.20;100.00;97579.79;1767363;80;21129;-77
2022/09/18 04:55:46;;;;;;;3.08;2.30;;;;;;;12.17;100.00;97578.72;1767189;81;21184;-77
2022/09/18 04:58:14;;;;;;;2.50;2.40;;;;;;;12.16;100.00;97570.92;1767570;81;22770;-78
2022/09/18 05:00:42;;;;;;;2.60;2.50;;;;;;;12.16;100.00;97567.80;1767497;81;21046;-77
2022/09/18 05:03:08;;;;;;;5.58;5.05;;;;;;;12.15;100.00;97560.83;1767535;81;21023;-77
2022/09/18 05:05:37;;;;;;;5.90;4.50;;;;;;;12.13;100.00;97569.33;1767319;81;21036;-77
2022/09/18 05:08:05;;;;;;;3.70;3.40;;;;;;;12.12;100.00;97567.67;1767683;81;21069;-76
2022/09/18 05:10:32;;;;;;;3.45;2.62;;;;;;;12.10;100.00;97565.59;1767274;81;21253;-77
2022/09/18 05:12:59;;;;;;;4.20;3.80;;;;;;;12.09;100.00;97570.52;1767306;81;21078;-77
2022/09/18 05:15:26;;;;;;;3.90;3.60;;;;;;;12.09;100.00;97562.61;1767621;81;21002;-77
2022/09/18 05:18:01;;;;;;;3.40;2.30;;;;;;;12.10;100.00;97551.09;1767754;81;21564;-76
2022/09/18 05:20:30;;;;;;;5.08;3.10;;;;;;;12.11;100.00;97538.78;1767614;81;21036;-77
2022/09/18 05:22:58;;;;;;;5.00;4.60;;;;;;;12.08;100.00;97522.20;1767407;81;22246;-75
2022/09/18 05:25:27;;;;;;;3.80;3.58;;;;;;;12.08;100.00;97524.02;1767385;81;22041;-76
2022/09/18 05:27:56;;;;;;;3.60;3.30;;;;;;;12.07;100.00;97527.62;1767508;81;21065;-77
2022/09/18 05:30:24;;;;;;;7.17;4.12;;;;;;;12.04;100.00;97516.81;1766926;81;21149;-77
2022/09/18 05:32:58;;;;;;;8.43;6.17;;;;;;;12.03;100.00;97516.43;1767374;81;21066;-77
2022/09/18 05:35:27;;;;;;;10.03;5.37;;;;;;;12.02;100.00;97517.86;1767358;81;21237;-77
2022/09/18 05:37:54;;;;;;;7.83;5.55;;;;;;;12.01;100.00;97512.24;1767426;81;20998;-77
2022/09/18 05:40:24;;;;;;;10.05;6.25;;;;;;;12.00;100.00;97514.50;1767538;81;21552;-77
2022/09/18 05:42:54;;;;;;;10.70;5.80;;;;;;;12.00;100.00;97509.23;1767465;81;21477;-78
2022/09/18 05:45:20;;;;;;;15.32;7.40;;;;;;;11.99;100.00;97500.97;1767556;81;20983;-78
2022/09/18 05:47:58;;;;;;;11.30;6.72;;;;;;;11.97;100.00;97506.80;1767790;81;21524;-77
2022/09/18 05:50:26;;;;;;;13.65;5.60;;;;;;;11.94;100.00;97503.94;1767024;81;21121;-77
2022/09/18 05:53:12;;;;;;;10.25;5.20;;;;;;;11.92;100.00;97494.44;1767616;81;21109;-77
2022/09/18 05:55:43;;;;;;;7.17;5.08;;;;;;;11.92;100.00;97490.03;1750638;81;21609;-76
2022/09/18 05:58:13;;;;;;;4.97;4.08;;;;;;;11.91;100.00;97490.97;1767675;81;21462;-77
2022/09/18 06:00:40;;;;;;;4.37;3.98;;;;;;;11.90;100.00;97488.80;1767560;81;21223;-77
2022/09/18 06:03:11;;;;;;;8.30;3.00;;;;;;;11.89;100.00;97482.31;1767076;81;21529;-77
2022/09/18 06:05:39;;;;;;;4.12;3.83;;;;;;;11.87;100.00;97483.74;1767900;81;21052;-76
2022/09/18 06:08:09;;;;;;;3.72;3.40;;;;;;;11.88;100.00;97485.89;1767625;81;21635;-78
2022/09/18 06:10:39;;;;;;;3.52;3.27;;;;;;;11.89;100.00;97484.95;1767470;81;21176;-77
2022/09/18 06:13:11;;;;;;;4.00;3.37;;;;;;;11.90;100.00;97476.94;1767320;81;21243;-76
2022/09/18 06:15:46;;;;;;;3.00;2.80;;;;;;;11.89;100.00;97468.66;1767219;81;21121;-77
2022/09/18 06:18:14;;;;;;;3.20;3.00;;;;;;;11.92;100.00;97466.77;1739045;81;21216;-76
2022/09/18 06:20:45;;;;;;;3.60;3.30;;;;;;;11.93;100.00;97464.52;1737371;81;21081;-78
2022/09/18 06:23:12;;;;;;;3.30;3.10;;;;;;;11.94;100.00;97458.30;1765607;81;21007;-78
2022/09/18 06:25:46;;;;;;;3.70;3.40;;;;;;;11.91;100.00;97454.08;1727318;81;21175;-75
2022/09/18 06:28:13;;;;;;;3.87;3.58;;;;;;;11.91;100.00;97455.40;1767593;81;20975;-76
2022/09/18 06:30:40;;;;;;;3.58;3.27;;;;;;;11.94;100.00;97455.67;1767547;81;21026;-76
2022/09/18 06:33:08;;;;;;;4.00;3.70;;;;;;;11.94;100.00;97450.39;1767501;81;21667;-76
2022/09/18 06:35:37;;;;;;;3.90;3.60;;;;;;;11.97;100.00;97447.51;1767448;81;21177;-77
2022/09/18 06:38:04;;;;;;;3.60;3.30;;;;;;;11.96;100.00;97435.30;1767374;81;21136;-76
2022/09/18 06:40:34;;;;;;;3.95;3.52;;;;;;;11.96;100.00;97443.21;1766715;81;21078;-77
2022/09/18 06:43:20;;;;;;;4.37;3.20;;;;;;;11.98;100.00;97432.91;1767358;81;21133;-77
2022/09/18 06:46:07;;;;;;;4.90;3.42;;;;;;;12.02;100.00;97431.74;1767210;81;21035;-77
2022/09/18 06:48:36;;;;;;;3.87;3.55;;;;;;;12.05;100.00;97434.61;1737977;81;20984;-76
2022/09/18 06:51:03;;;;;;;3.50;3.20;;;;;;;12.06;100.00;97423.13;1767562;81;21125;-76
2022/09/18 06:53:31;;;;;;;3.17;2.98;;;;;;;12.09;100.00;97422.91;1767024;81;20950;-77
2022/09/18 06:56:02;;;;;;;3.22;3.02;;;;;;;12.14;100.00;97414.17;1767368;81;21085;-76
2022/09/18 06:58:31;;;;;;;3.37;3.17;;;;;;;12.17;100.00;97417.91;1767018;81;21682;-77
2022/09/18 07:00:59;;;;;;;3.30;3.10;;;;;;;12.20;100.00;97425.55;1767393;81;21086;-76
2022/09/18 07:03:28;;;;;;;4.33;3.58;;;;;;;12.24;100.00;97434.94;1767134;81;21165;-76
2022/09/18 07:05:59;;;;;;;3.72;3.45;;;;;;;12.28;100.00;97437.34;1759883;81;21069;-76
2022/09/18 07:08:29;;;;;;;4.15;3.62;;;;;;;12.33;100.00;97435.20;1765468;80;21027;-77
2022/09/18 07:11:01;;;;;;;5.95;4.37;;;;;;;12.36;100.00;97425.27;1737498;81;21089;-77
2022/09/18 07:13:31;;;;;;;5.25;4.50;;;;;;;12.38;100.00;97429.11;1767379;81;21540;-76
2022/09/18 07:15:58;;;;;;;4.70;4.30;;;;;;;12.41;100.00;97424.92;1767493;81;21122;-76
2022/09/18 07:18:25;;;;;;;4.20;3.90;;;;;;;12.43;100.00;97417.73;1767679;81;21101;-77
2022/09/18 07:20:53;;;;;;;4.00;3.80;;;;;;;12.47;100.00;97413.89;1767235;81;21082;-77
2022/09/18 07:23:21;;;;;;;4.78;4.37;;;;;;;12.49;100.00;97402.77;1765430;81;21010;-76
2022/09/18 07:25:50;;;;;;;4.33;3.98;;;;;;;12.52;100.00;97399.03;1767737;81;21556;-77
2022/09/18 07:28:16;;;;;;;4.58;4.17;;;;;;;12.52;100.00;97385.36;1767806;81;22202;-77
2022/09/18 07:30:46;;;;;;;6.78;6.00;;;;;;;12.53;100.00;97365.95;1765727;81;21517;-76
2022/09/18 07:33:15;;;;;;;6.70;6.03;;;;;;;12.52;100.00;97361.63;1767538;81;21089;-77
2022/09/18 07:35:45;;;;;;;5.70;5.10;;;;;;;12.56;100.00;97374.13;1767204;81;21098;-77
2022/09/18 07:38:12;;;;;;;4.65;4.10;;;;;;;12.59;100.00;97370.77;1767516;81;20983;-76
2022/09/18 07:40:44;;;;;;;3.85;3.55;;;;;;;12.64;100.00;97363.79;1761669;81;21904;-77
2022/09/18 07:43:13;;;;;;;7.15;5.35;;;;;;;12.71;100.00;97357.56;1765886;81;21007;-77
2022/09/18 07:45:43;;;;;;;3.70;3.40;;;;;;;12.75;100.00;97357.20;1766807;81;21058;-77
2022/09/18 07:48:11;;;;;;;4.22;3.37;;;;;;;12.78;100.00;97364.06;1767188;81;21498;-77
2022/09/18 07:50:40;;;;;;;3.87;3.58;;;;;;;12.79;100.00;97367.03;1767418;81;21062;-77
2022/09/18 07:53:07;;;;;;;4.10;3.80;;;;;;;12.85;100.00;97368.38;1767307;81;21692;-77
2022/09/18 07:55:36;;;;;;;3.60;3.40;;;;;;;12.89;100.00;97374.59;1767637;81;21621;-78
2022/09/18 07:58:05;;;;;;;3.45;3.12;;;;;;;12.93;100.00;97372.09;1767690;81;21580;-77
2022/09/18 08:00:40;;;;;;;6.65;3.02;;;;;;;12.94;100.00;97376.39;1763588;81;21125;-77
2022/09/18 08:03:11;;;;;;;3.05;2.85;;;;;;;12.96;100.00;97378.45;1767654;81;21022;-77
2022/09/18 08:05:42;;;;;;;3.37;3.15;;;;;;;12.97;100.00;97382.75;1764794;81;21916;-76
2022/09/18 08:08:11;;;;;;;3.52;3.20;;;;;;;12.97;100.00;97380.60;1767548;81;21565;-77
2022/09/18 08:10:56;;;;;;;3.00;2.77;;;;;;;12.94;100.00;97386.11;1767459;81;21592;-77
2022/09/18 08:13:31;;;;;;;2.85;2.55;;;;;;;12.89;100.00;97387.79;1727978;81;28545;-77
2022/09/18 08:16:03;;;;;;;2.52;2.42;;;;;;;12.84;100.00;97385.98;1728292;81;21065;-77
2022/09/18 08:18:37;;;;;;;8.10;5.00;;;;;;;12.81;100.00;97380.98;1764747;81;21144;-78
2022/09/18 08:21:05;;;;;;;6.30;4.20;;;;;;;12.82;100.00;97381.31;1765614;81;21062;-77
2022/09/18 08:23:45;;;;;;;4.03;3.65;;;;;;;12.85;100.00;97378.94;1766639;81;21038;-76
2022/09/18 08:26:13;;;;;;;3.72;3.35;;;;;;;12.91;100.00;97359.50;1767311;81;21086;-75
2022/09/18 08:28:40;;;;;;;7.20;4.00;;;;;;;12.96;100.00;97349.41;1767509;81;20983;-75
2022/09/18 08:31:06;;;;;;;4.00;3.70;;;;;;;13.00;100.00;97342.92;1767568;81;21223;-76
2022/09/18 08:33:33;;;;;;;3.50;3.30;;;;;;;13.04;100.00;97338.72;1767368;81;21097;-76
2022/09/18 08:36:02;;;;;;;3.72;3.42;;;;;;;13.08;100.00;97339.69;1767761;81;21014;-76
2022/09/18 08:38:30;;;;;;;8.13;6.45;;;;;;;13.14;100.00;97345.77;1767353;81;21074;-76
2022/09/18 08:41:20;;;;;;;5.00;4.50;;;;;;;13.19;100.00;97342.77;1740240;81;20975;-77
2022/09/18 08:44:05;;;;;;;5.97;4.58;;;;;;;13.21;100.00;97336.88;1736973;81;21113;-76
2022/09/18 08:46:47;;;;;;;13.88;6.47;;;;;;;13.25;100.00;97327.77;1767507;81;21109;-76
2022/09/18 08:49:35;;;;;;;3.15;2.92;;;;;;;13.30;100.00;97336.16;1767599;81;21101;-77
2022/09/18 08:52:14;;;;;;;2.10;2.00;;;;;;;13.35;100.00;97335.83;1767348;81;21466;-76
2022/09/18 08:55:01;;;;;;;2.60;2.40;;;;;;;13.37;100.00;97322.00;1767385;81;21085;-76
2022/09/18 08:57:46;;;;;;;2.47;2.37;;;;;;;13.43;100.00;97320.66;1766775;81;21112;-76
2022/09/18 09:00:28;;;;;;;2.58;2.37;;;;;;;13.49;100.00;97305.64;1767323;81;20923;-76
2022/09/18 09:03:16;;;;;;;3.02;2.83;;;;;;;13.57;100.00;97308.48;1764817;81;21065;-76
2022/09/18 09:05:47;;;;;;;2.45;2.35;;;;;;;13.63;100.00;97302.68;1767410;81;21088;-76
2022/09/18 09:08:25;;;;;;;2.25;2.15;;;;;;;13.70;100.00;97306.52;1767675;81;21912;-77
2022/09/18 09:11:16;;;;;;;2.30;2.10;;;;;;;13.78;100.00;97306.35;1736953;81;22503;-76
2022/09/18 09:13:53;;;;;;;2.30;2.20;;;;;;;13.82;100.00;97298.52;1737722;81;21030;-77
2022/09/18 09:16:43;;;;;;;1.95;1.85;;;;;;;13.87;100.00;97293.67;1767377;81;21071;-76
2022/09/18 09:19:30;;;;;;;1.82;1.72;;;;;;;13.91;100.00;97289.83;1767480;81;21655;-76
2022/09/18 09:22:04;;;;;;;3.10;2.30;;;;;;;13.98;100.00;97284.86;1767551;81;21066;-75
2022/09/18 09:24:56;;;;;;;2.22;2.05;;;;;;;14.02;100.00;97284.95;1767565;81;21034;-76
2022/09/18 09:28:01;;;;;;;2.00;1.90;;;;;;;14.03;100.00;97280.85;1767382;81;21061;-76
2022/09/18 09:30:48;;;;;;;2.62;2.52;;;;;;;14.05;100.00;97281.55;1765325;81;21062;-76
2022/09/18 09:33:34;;;;;;;2.72;2.50;;;;;;;14.08;100.00;97270.72;1748439;81;21066;-75
2022/09/18 09:36:07;;;;;;;2.60;2.40;;;;;;;14.09;100.00;97268.94;1748007;81;21711;-76
2022/09/18 09:39:09;;;;;;;3.27;2.08;;;;;;;14.11;100.00;97261.70;1749883;81;21777;-77
2022/09/18 09:41:41;;;;;;;3.92;2.12;;;;;;;14.16;100.00;97264.80;1751150;81;21652;-76
2022/09/18 09:44:25;;;;;;;2.52;2.33;;;;;;;14.22;100.00;97267.39;1750750;81;21593;-76
2022/09/18 09:47:13;;;;;;;2.53;2.43;;;;;;;14.25;100.00;97271.09;1751292;81;21557;-76
2022/09/18 09:50:23;;;;;;;2.40;2.30;;;;;;;14.28;100.00;97270.84;1750985;81;21489;-76
2022/09/18 09:52:50;;;;;;;3.77;3.47;;;;;;;14.32;100.00;97266.95;1750971;81;21106;-76
2022/09/18 09:55:53;;;;;;;3.70;3.40;;;;;;;14.36;100.00;97274.99;1750625;81;21019;-76
2022/09/18 09:58:46;;;;;;;4.30;4.00;;;;;;;14.40;100.00;97276.39;1751168;81;20988;-76
2022/09/18 10:01:24;;;;;;;3.92;3.62;;;;;;;14.43;100.00;97273.48;1750741;81;21063;-76
2022/09/18 10:04:16;;;;;;;7.33;3.70;;;;;;;14.45;100.00;97272.86;1751086;81;21466;-76
2022/09/18 10:07:11;;;;;;;5.92;4.12;;;;;;;14.45;100.00;97272.86;1750687;81;21136;-77
2022/09/18 10:10:13;;;;;;;4.80;4.40;;;;;;;14.49;100.00;97276.94;1750814;81;21066;-76
2022/09/18 10:12:51;;;;;;;6.33;5.83;;;;;;;14.53;100.00;97261.62;1751206;81;21066;-76
2022/09/18 10:15:25;;;;;;;7.90;7.05;;;;;;;14.58;100.00;97271.81;1750874;81;21137;-77
2022/09/18 10:17:55;;;;;;;10.32;7.78;;;;;;;14.59;100.00;97268.21;1751437;81;21157;-76
2022/09/18 10:20:28;;;;;;;7.30;6.60;;;;;;;14.58;100.00;97264.70;1750948;81;21236;-76
2022/09/18 10:22:57;;;;;;;6.53;5.95;;;;;;;14.57;100.00;97270.13;1751115;81;21106;-76
2022/09/18 10:25:42;;;;;;;6.20;5.70;;;;;;;14.57;100.00;97270.13;1750850;81;20980;-76
2022/09/18 10:28:13;;;;;;;9.18;6.50;;;;;;;14.58;100.00;97267.84;1751425;81;21110;-75
2022/09/18 10:30:58;;;;;;;6.70;5.67;;;;;;;14.59;100.00;97273.50;1750930;81;21114;-76
2022/09/18 10:33:40;;;;;;;5.60;5.10;;;;;;;14.61;100.00;97270.27;1751200;81;21212;-76
2022/09/18 10:36:37;;;;;;;5.62;5.20;;;;;;;14.64;100.00;97269.51;1750380;81;21134;-76
2022/09/18 10:39:19;;;;;;;5.62;5.22;;;;;;;14.67;100.00;97268.38;1750583;81;20996;-76
2022/09/18 10:41:47;;;;;;;4.72;4.42;;;;;;;14.66;100.00;97266.73;1748963;81;21158;-77
2022/09/18 10:44:30;;;;;;;5.28;4.87;;;;;;;14.66;100.00;97257.47;1700345;81;20979;-76
2022/09/18 10:47:11;;;;;;;5.03;4.65;;;;;;;14.68;100.00;97255.52;1750778;81;21152;-77
2022/09/18 10:50:08;;;;;;;5.10;4.70;;;;;;;14.68;100.00;97251.55;1725614;81;21133;-77
2022/09/18 10:52:40;;;;;;;4.85;4.55;;;;;;;14.66;100.00;97258.30;1725548;81;20995;-76
2022/09/18 10:55:13;;;;;;;4.60;4.30;;;;;;;14.66;100.00;97262.76;1749972;81;21572;-75
2022/09/18 10:57:59;;;;;;;5.05;4.65;;;;;;;14.67;100.00;97261.27;1750998;81;21067;-76
2022/09/18 11:00:32;;;;;;;4.90;4.60;;;;;;;14.66;100.00;97257.47;1751009;81;21114;-77
2022/09/18 11:03:32;;;;;;;4.75;4.33;;;;;;;14.66;100.00;97246.88;1751058;81;21097;-75
2022/09/18 11:06:02;;;;;;;4.92;4.53;;;;;;;14.67;100.00;97240.09;1749762;81;21565;-77
2022/09/18 11:08:36;;;;;;;5.10;4.70;;;;;;;14.71;100.00;97237.19;1751101;81;21569;-76
2022/09/18 11:11:05;;;;;;;8.98;5.17;;;;;;;14.71;100.00;97235.40;1726074;81;21082;-76
2022/09/18 11:13:53;;;;;;;5.47;4.97;;;;;;;14.73;100.00;97237.42;1750859;81;21160;-76
2022/09/18 11:16:28;;;;;;;4.60;4.30;;;;;;;14.75;100.00;97230.67;1750565;81;21003;-76
2022/09/18 11:19:32;;;;;;;5.55;4.97;;;;;;;14.77;100.00;97224.25;1751211;81;21081;-77
2022/09/18 11:22:05;;;;;;;6.15;5.65;;;;;;;14.77;100.00;97220.28;1725527;81;21054;-76
2022/09/18 11:24:36;;;;;;;6.37;5.35;;;;;;;14.77;100.00;97218.95;1750853;81;21055;-78
2022/09/18 11:27:21;;;;;;;5.58;5.17;;;;;;;14.77;100.00;97211.02;1750756;81;21089;-75
2022/09/18 11:29:51;;;;;;;6.78;5.42;;;;;;;14.79;100.00;97205.59;1751333;81;21114;-76
2022/09/18 11:32:30;;;;;;;5.90;5.42;;;;;;;14.79;100.00;97207.77;1725214;81;21544;-76
2022/09/18 11:35:01;;;;;;;6.47;5.87;;;;;;;14.81;100.00;97200.52;1751100;81;21936;-74
2022/09/18 11:37:34;;;;;;;5.20;4.80;;;;;;;14.84;100.00;97201.58;1750644;81;21035;-76
2022/09/18 11:40:07;;;;;;;5.50;5.00;;;;;;;14.88;100.00;97185.39;1751311;81;21094;-76
2022/09/18 11:42:45;;;;;;;5.75;5.30;;;;;;;14.89;100.00;97183.11;1723889;81;21134;-75
2022/09/18 11:45:49;;;;;;;5.72;5.33;;;;;;;14.90;100.00;97174.20;1751394;81;21011;-76
2022/09/18 11:48:38;;;;;;;4.87;4.58;;;;;;;14.90;100.00;97178.17;1725396;81;21003;-77
2022/09/18 11:51:19;;;;;;;5.00;4.70;;;;;;;14.90;100.00;97172.87;1747331;81;21593;-75
2022/09/18 11:53:50;;;;;;;6.08;5.58;;;;;;;14.92;100.00;97169.09;1725274;81;21117;-76
2022/09/18 11:56:28;;;;;;;5.50;5.20;;;;;;;14.97;100.00;97148.84;1751133;81;21062;-75
2022/09/18 11:59:01;;;;;;;5.40;5.00;;;;;;;15.04;100.00;97142.00;1751184;81;20979;-76